createdAt,value
2023-04-20T00:01:07.458Z,98796.22
2023-04-20T00:03:35.452Z,98782.81
2023-04-20T00:06:02.876Z,98784.97
2023-04-20T00:08:29.848Z,98788.97
2023-04-20T00:10:56.602Z,98784.44
2023-04-20T00:13:23.465Z,98780.47
2023-04-20T00:15:50.316Z,98775.06
2023-04-20T00:18:20.184Z,98773.97
2023-04-20T00:20:46.972Z,98763.50
2023-04-20T00:23:14.000Z,98761.84
2023-04-20T00:25:43.452Z,98757.22
2023-04-20T00:28:10.388Z,98756.13
2023-04-20T00:30:37.183Z,98750.28
2023-04-20T00:33:04.128Z,98738.69
2023-04-20T00:35:31.134Z,98736.28
2023-04-20T00:37:58.008Z,98734.81
2023-04-20T00:40:24.971Z,98724.94
2023-04-20T00:42:51.930Z,98721.63
2023-04-20T00:45:19.323Z,98721.59
2023-04-20T00:47:49.194Z,98720.50
2023-04-20T00:50:16.174Z,98715.66
2023-04-20T00:52:43.197Z,98714.31
2023-04-20T00:55:10.825Z,98709.78
2023-04-20T00:57:38.307Z,98713.53
2023-04-20T01:00:07.359Z,98709.44
2023-04-20T01:05:16.762Z,98701.72
2023-04-20T01:07:43.881Z,98696.31
2023-04-20T01:10:14.248Z,98698.78
2023-04-20T01:12:41.794Z,98693.19
2023-04-20T01:15:12.427Z,98684.53
2023-04-20T01:17:39.764Z,98687.19
2023-04-20T01:20:13.080Z,98674.84
2023-04-20T01:22:48.290Z,98669.94
2023-04-20T01:25:16.282Z,98669.09
2023-04-20T01:27:43.694Z,98662.56
2023-04-20T01:30:11.726Z,98659.28
2023-04-20T01:32:39.886Z,98664.63
2023-04-20T01:35:08.582Z,98659.47
2023-04-20T01:37:35.498Z,98654.00
2023-04-20T01:40:03.797Z,98651.84
2023-04-20T01:42:30.729Z,98650.50
2023-04-20T01:44:57.604Z,98645.94
2023-04-20T01:47:24.432Z,98639.78
2023-04-20T01:49:51.165Z,98636.22
2023-04-20T01:52:25.270Z,98624.69
2023-04-20T01:54:52.336Z,98632.47
2023-04-20T01:57:19.184Z,98629.50
2023-04-20T01:59:46.065Z,98628.59
2023-04-20T02:02:12.967Z,98626.44
2023-04-20T02:04:39.923Z,98622.78
2023-04-20T02:07:10.068Z,98627.97
2023-04-20T02:09:36.843Z,98626.16
2023-04-20T02:12:04.142Z,98624.03
2023-04-20T02:14:31.401Z,98624.78
2023-04-20T02:17:01.883Z,98619.75
2023-04-20T02:19:28.791Z,98617.38
2023-04-20T02:21:55.547Z,98609.84
2023-04-20T02:24:23.297Z,98618.63
2023-04-20T02:26:52.525Z,98604.41
2023-04-20T02:29:19.715Z,98606.91
2023-04-20T02:31:47.041Z,98605.00
2023-04-20T02:34:14.291Z,98601.28
2023-04-20T02:36:41.383Z,98598.91
2023-04-20T02:39:08.321Z,98598.53
2023-04-20T02:41:35.761Z,98596.69
2023-04-20T02:44:02.581Z,98591.00
2023-04-20T02:46:29.455Z,98584.69
2023-04-20T02:48:57.180Z,98580.75
2023-04-20T02:51:24.043Z,98583.25
2023-04-20T02:53:53.787Z,98582.13
2023-04-20T02:56:21.593Z,98584.50
2023-04-20T02:58:48.599Z,98588.22
2023-04-20T03:01:15.863Z,98580.16
2023-04-20T03:03:42.805Z,98577.13
2023-04-20T03:06:09.765Z,98573.03
2023-04-20T03:08:37.030Z,98590.91
2023-04-20T03:11:04.069Z,98583.44
2023-04-20T03:13:31.037Z,98584.81
2023-04-20T03:15:58.260Z,98583.28
2023-04-20T03:18:27.697Z,98574.84
2023-04-20T03:20:54.635Z,98570.44
2023-04-20T03:23:21.519Z,98568.13
2023-04-20T03:25:49.082Z,98572.47
2023-04-20T03:28:16.917Z,98570.97
2023-04-20T03:30:44.051Z,98570.97
2023-04-20T03:33:13.386Z,98570.59
2023-04-20T03:35:43.451Z,98556.41
2023-04-20T03:38:10.345Z,98563.16
2023-04-20T03:40:37.628Z,98560.44
2023-04-20T03:43:06.949Z,98564.41
2023-04-20T03:45:33.795Z,98563.56
2023-04-20T03:48:00.650Z,98565.09
2023-04-20T03:50:28.107Z,98564.72
2023-04-20T03:52:54.976Z,98559.88
2023-04-20T03:55:21.867Z,98555.13
2023-04-20T03:57:48.689Z,98557.81
2023-04-20T04:00:16.457Z,98563.16
2023-04-20T04:02:43.890Z,98571.13
2023-04-20T04:05:11.656Z,98567.91
2023-04-20T04:07:38.455Z,98559.25
2023-04-20T04:10:06.242Z,98560.97
2023-04-20T04:12:33.099Z,98568.13
2023-04-20T04:14:59.880Z,98567.44
2023-04-20T04:17:26.783Z,98567.44
2023-04-20T04:19:53.739Z,98565.94
2023-04-20T04:22:20.562Z,98570.25
2023-04-20T04:24:48.956Z,98560.34
2023-04-20T04:27:18.764Z,98559.31
2023-04-20T04:29:45.612Z,98565.09
2023-04-20T04:32:12.385Z,98565.59
2023-04-20T04:34:39.394Z,98567.34
2023-04-20T04:37:06.140Z,98563.50
2023-04-20T04:39:35.479Z,98572.41
2023-04-20T04:42:04.846Z,98565.00
2023-04-20T04:44:33.101Z,98561.44
2023-04-20T04:46:59.934Z,98567.63
2023-04-20T04:49:26.874Z,98556.44
2023-04-20T04:51:53.689Z,98557.81
2023-04-20T04:54:20.530Z,98558.31
2023-04-20T04:56:47.316Z,98556.97
2023-04-20T04:59:14.355Z,98556.69
2023-04-20T05:01:41.352Z,98558.25
2023-04-20T05:04:08.389Z,98554.97
2023-04-20T05:06:35.525Z,98549.63
2023-04-20T05:09:02.340Z,98554.47
2023-04-20T05:11:29.522Z,98556.63
2023-04-20T05:13:56.502Z,98553.84
2023-04-20T05:16:23.401Z,98556.53
2023-04-20T05:18:51.039Z,98561.81
2023-04-20T05:21:17.874Z,98555.13
2023-04-20T05:23:44.757Z,98551.31
2023-04-20T05:26:11.537Z,98560.84
2023-04-20T05:28:39.020Z,98557.59
2023-04-20T05:31:07.928Z,98557.19
2023-04-20T05:33:39.840Z,98559.28
2023-04-20T05:36:12.176Z,98559.66
2023-04-20T05:38:39.168Z,98559.66
2023-04-20T05:41:07.920Z,98556.47
2023-04-20T05:43:38.245Z,98555.63
2023-04-20T05:46:05.285Z,98559.94
2023-04-20T05:48:32.113Z,98554.94
2023-04-20T05:50:59.029Z,98555.53
2023-04-20T05:53:26.144Z,98553.13
2023-04-20T05:55:56.217Z,98552.09
2023-04-20T05:58:23.338Z,98552.94
2023-04-20T06:00:50.126Z,98541.75
2023-04-20T06:03:17.202Z,98554.13
2023-04-20T06:05:44.408Z,98549.88
2023-04-20T06:08:11.460Z,98552.41
2023-04-20T06:10:38.654Z,98544.88
2023-04-20T06:13:05.883Z,98539.53
2023-04-20T06:15:35.664Z,98549.19
2023-04-20T06:18:02.973Z,98542.53
2023-04-20T06:20:36.215Z,98548.44
2023-04-20T06:23:08.834Z,98542.31
2023-04-20T06:25:39.051Z,98541.50
2023-04-20T06:28:06.693Z,98544.28
2023-04-20T06:30:34.738Z,98534.66
2023-04-20T06:33:03.105Z,98532.53
2023-04-20T06:35:33.182Z,98533.13
2023-04-20T06:38:03.400Z,98533.41
2023-04-20T06:40:30.235Z,98526.75
2023-04-20T06:42:57.069Z,98532.16
2023-04-20T06:45:29.788Z,98525.19
2023-04-20T06:47:57.404Z,98522.00
2023-04-20T06:50:27.133Z,98503.47
2023-04-20T06:52:54.038Z,98510.72
2023-04-20T06:55:26.993Z,98515.03
2023-04-20T06:57:54.128Z,98514.75
2023-04-20T07:00:21.115Z,98516.91
2023-04-20T07:02:51.196Z,98502.09
2023-04-20T07:05:19.298Z,98500.97
2023-04-20T07:07:52.174Z,98496.63
2023-04-20T07:10:19.195Z,98500.03
2023-04-20T07:12:46.453Z,98491.66
2023-04-20T07:15:13.468Z,98492.13
2023-04-20T07:17:40.754Z,98501.25
2023-04-20T07:20:08.869Z,98487.44
2023-04-20T07:22:37.597Z,98490.06
2023-04-20T07:25:08.007Z,98488.34
2023-04-20T07:27:37.691Z,98486.34
2023-04-20T07:30:06.350Z,98488.63
2023-04-20T07:32:34.659Z,98487.91
2023-04-20T07:35:05.243Z,98482.16
2023-04-20T07:37:33.941Z,98481.41
2023-04-20T07:40:00.866Z,98482.00
2023-04-20T07:42:30.181Z,98484.72
2023-04-20T07:44:57.008Z,98479.16
2023-04-20T07:47:23.832Z,98487.06
2023-04-20T07:49:50.818Z,98482.22
2023-04-20T07:52:18.344Z,98485.25
2023-04-20T07:54:45.611Z,98486.56
2023-04-20T07:57:12.652Z,98485.13
2023-04-20T07:59:40.824Z,98481.06
2023-04-20T08:02:08.931Z,98480.16
2023-04-20T08:04:39.444Z,98484.31
2023-04-20T08:07:06.610Z,98480.81
2023-04-20T08:09:33.452Z,98473.19
2023-04-20T08:12:00.618Z,98474.00
2023-04-20T08:14:30.665Z,98467.19
2023-04-20T08:16:57.472Z,98467.88
2023-04-20T08:19:24.364Z,98460.91
2023-04-20T08:21:52.470Z,98467.69
2023-04-20T08:24:20.746Z,98461.09
2023-04-20T08:26:47.912Z,98453.78
2023-04-20T08:29:15.110Z,98453.09
2023-04-20T08:31:41.902Z,98452.47
2023-04-20T08:34:08.865Z,98454.31
2023-04-20T08:36:38.312Z,98447.22
2023-04-20T08:39:13.306Z,98448.06
2023-04-20T08:41:40.548Z,98454.47
2023-04-20T08:44:08.289Z,98457.31
2023-04-20T08:46:36.157Z,98449.63
2023-04-20T08:49:06.027Z,98446.56
2023-04-20T08:51:34.269Z,98449.09
2023-04-20T08:54:06.356Z,98446.22
2023-04-20T08:56:39.312Z,98450.63
2023-04-20T08:59:09.420Z,98452.22
2023-04-20T09:01:39.470Z,98451.44
2023-04-20T09:04:26.776Z,98451.19
2023-04-20T09:06:56.429Z,98456.13
2023-04-20T09:09:25.573Z,98455.41
2023-04-20T09:12:09.336Z,98455.75
2023-04-20T09:14:52.947Z,98455.06
2023-04-20T09:17:33.216Z,98461.94
2023-04-20T09:20:00.515Z,98462.28
2023-04-20T09:22:36.737Z,98455.13
2023-04-20T09:25:33.083Z,98463.97
2023-04-20T09:28:01.852Z,98460.38
2023-04-20T09:30:38.887Z,98454.19
2023-04-20T09:33:08.322Z,98455.50
2023-04-20T09:35:36.423Z,98459.44
2023-04-20T09:38:03.439Z,98457.66
2023-04-20T09:40:31.980Z,98459.41
2023-04-20T09:43:04.094Z,98459.72
2023-04-20T09:45:32.217Z,98462.22
2023-04-20T09:47:59.772Z,98460.22
2023-04-20T09:50:38.237Z,98465.75
2023-04-20T09:53:16.500Z,98457.66
2023-04-20T09:55:51.745Z,98468.38
2023-04-20T09:58:20.761Z,98458.91
2023-04-20T10:00:53.575Z,98460.50
2023-04-20T10:03:21.746Z,98460.94
2023-04-20T10:05:55.477Z,98459.59
2023-04-20T10:08:24.300Z,98459.00
2023-04-20T10:10:52.243Z,98464.00
2023-04-20T10:13:20.516Z,98452.59
2023-04-20T10:15:47.379Z,98451.75
2023-04-20T10:18:24.662Z,98448.97
2023-04-20T10:21:05.657Z,98441.66
2023-04-20T10:23:32.989Z,98429.56
2023-04-20T10:26:01.938Z,98425.97
2023-04-20T10:28:44.767Z,98424.38
2023-04-20T10:31:14.120Z,98420.44
2023-04-20T10:33:58.474Z,98412.03
2023-04-20T10:36:33.955Z,98412.44
2023-04-20T10:39:02.709Z,98421.75
2023-04-20T10:41:29.871Z,98416.16
2023-04-20T10:44:11.432Z,98407.22
2023-04-20T10:46:38.423Z,98403.09
2023-04-20T10:49:05.230Z,98405.59
2023-04-20T10:51:32.279Z,98403.91
2023-04-20T10:54:07.682Z,98401.19
2023-04-20T10:56:46.006Z,98396.44
2023-04-20T10:59:16.726Z,98386.44
2023-04-20T11:01:45.576Z,98389.75
2023-04-20T11:04:15.534Z,98385.44
2023-04-20T11:06:50.784Z,98380.69
2023-04-20T11:09:26.489Z,98387.22
2023-04-20T11:12:02.027Z,98376.31
2023-04-20T11:14:30.806Z,98382.13
2023-04-20T11:16:57.702Z,98385.88
2023-04-20T11:19:32.762Z,98376.75
2023-04-20T11:22:01.761Z,98385.56
2023-04-20T11:24:31.848Z,98378.34
2023-04-20T11:26:59.326Z,98388.97
2023-04-20T11:29:38.643Z,98386.34
2023-04-20T11:32:09.012Z,98388.06
2023-04-20T11:34:39.132Z,98388.38
2023-04-20T11:37:07.711Z,98384.84
2023-04-20T11:39:34.681Z,98390.75
2023-04-20T11:42:02.114Z,98385.06
2023-04-20T11:44:29.043Z,98386.16
2023-04-20T11:46:59.581Z,98384.56
2023-04-20T11:49:29.386Z,98386.06
2023-04-20T11:51:56.808Z,98391.19
2023-04-20T11:54:24.028Z,98381.47
2023-04-20T11:56:51.395Z,98378.22
2023-04-20T11:59:20.796Z,98383.16
2023-04-20T12:01:52.448Z,98383.97
2023-04-20T12:04:20.060Z,98390.59
2023-04-20T12:06:47.264Z,98393.69
2023-04-20T12:09:14.841Z,98387.97
2023-04-20T12:11:45.779Z,98397.09
2023-04-20T12:14:13.958Z,98396.78
2023-04-20T12:16:40.955Z,98395.16
2023-04-20T12:19:08.923Z,98392.06
2023-04-20T12:21:36.448Z,98392.56
2023-04-20T12:24:06.384Z,98392.19
2023-04-20T12:26:41.576Z,98388.84
2023-04-20T12:29:08.673Z,98396.38
2023-04-20T12:31:36.666Z,98382.75
2023-04-20T12:34:04.106Z,98389.34
2023-04-20T12:36:32.443Z,98391.38
2023-04-20T12:38:59.371Z,98401.06
2023-04-20T12:41:26.283Z,98401.03
2023-04-20T12:43:55.170Z,98394.91
2023-04-20T12:46:23.149Z,98381.47
2023-04-20T12:48:50.147Z,98384.00
2023-04-20T12:51:17.060Z,98387.56
2023-04-20T12:53:43.898Z,98380.91
2023-04-20T12:56:11.249Z,98373.47
2023-04-20T12:58:38.113Z,98368.38
2023-04-20T13:01:04.955Z,98387.78
2023-04-20T13:03:32.782Z,98382.47
2023-04-20T13:06:00.358Z,98380.13
2023-04-20T13:08:27.337Z,98383.94
2023-04-20T13:10:54.446Z,98392.78
2023-04-20T13:13:21.518Z,98391.44
2023-04-20T13:15:48.341Z,98393.50
2023-04-20T13:18:15.529Z,98396.56
2023-04-20T13:20:42.924Z,98395.78
2023-04-20T13:23:09.800Z,98395.28
2023-04-20T13:25:38.642Z,98390.38
2023-04-20T13:28:05.764Z,98390.75
2023-04-20T13:30:33.179Z,98390.47
2023-04-20T13:33:00.097Z,98386.44
2023-04-20T13:35:27.049Z,98382.44
2023-04-20T13:37:53.905Z,98372.22
2023-04-20T13:40:20.882Z,98376.44
2023-04-20T13:42:50.765Z,98364.13
2023-04-20T13:45:19.698Z,98367.16
2023-04-20T13:47:49.363Z,98362.84
2023-04-20T13:50:16.146Z,98363.13
2023-04-20T13:52:46.073Z,98370.97
2023-04-20T13:55:12.961Z,98374.69
2023-04-20T13:57:43.959Z,98370.03
2023-04-20T14:00:11.606Z,98376.44
2023-04-20T14:02:39.280Z,98374.69
2023-04-20T14:05:06.970Z,98370.72
2023-04-20T14:07:33.969Z,98372.91
2023-04-20T14:10:00.853Z,98371.31
2023-04-20T14:12:28.807Z,98369.72
2023-04-20T14:15:02.079Z,98363.53
2023-04-20T14:17:29.765Z,98363.72
2023-04-20T14:19:58.383Z,98363.72
2023-04-20T14:22:25.600Z,98354.59
2023-04-20T14:24:52.424Z,98351.31
2023-04-20T14:27:21.353Z,98348.25
2023-04-20T14:29:48.217Z,98350.16
2023-04-20T14:32:15.485Z,98344.69
2023-04-20T14:34:42.353Z,98351.56
2023-04-20T14:37:10.076Z,98354.03
2023-04-20T14:39:37.203Z,98350.03
2023-04-20T14:42:04.023Z,98348.53
2023-04-20T14:44:31.060Z,98342.00
2023-04-20T14:46:58.323Z,98344.97
2023-04-20T14:49:25.247Z,98347.91
2023-04-20T14:51:52.152Z,98346.88
2023-04-20T14:54:20.179Z,98336.59
2023-04-20T14:56:50.867Z,98336.38
2023-04-20T14:59:20.499Z,98344.91
2023-04-20T15:02:01.124Z,98349.94
2023-04-20T15:04:29.675Z,98364.00
2023-04-20T15:06:56.519Z,98358.63
2023-04-20T15:09:25.849Z,98339.72
2023-04-20T15:11:52.939Z,98342.34
2023-04-20T15:14:21.123Z,98345.13
2023-04-20T15:16:54.331Z,98349.56
2023-04-20T15:19:23.021Z,98360.59
2023-04-20T15:21:50.608Z,98356.50
2023-04-20T15:24:17.600Z,98359.78
2023-04-20T15:26:44.685Z,98357.38
2023-04-20T15:29:11.630Z,98363.50
2023-04-20T15:31:40.174Z,98366.19
2023-04-20T15:34:11.793Z,98368.91
2023-04-20T15:36:38.792Z,98366.19
2023-04-20T15:39:05.905Z,98366.19
2023-04-20T15:41:32.928Z,98347.81
2023-04-20T15:43:59.755Z,98372.13
2023-04-20T15:46:26.670Z,98364.00
2023-04-20T15:48:53.614Z,98368.31
2023-04-20T15:51:21.045Z,98358.63
2023-04-20T15:53:51.633Z,98363.22
2023-04-20T15:56:22.458Z,98345.69
2023-04-20T15:58:50.558Z,98344.09
2023-04-20T16:01:21.231Z,98351.59
2023-04-20T16:03:50.132Z,98358.91
2023-04-20T16:06:17.466Z,98363.50
2023-04-20T16:08:51.370Z,98363.22
2023-04-20T16:11:18.420Z,98369.94
2023-04-20T16:13:46.945Z,98376.66
2023-04-20T16:16:15.329Z,98370.00
2023-04-20T16:18:45.736Z,98362.72
2023-04-20T16:21:14.201Z,98380.78
2023-04-20T16:23:42.976Z,98383.28
2023-04-20T16:26:10.341Z,98382.03
2023-04-20T16:28:38.062Z,98382.09
2023-04-20T16:31:05.776Z,98383.84
2023-04-20T16:33:33.224Z,98370.56
2023-04-20T16:36:01.786Z,98377.56
2023-04-20T16:38:28.852Z,98362.28
2023-04-20T16:40:55.687Z,98366.28
2023-04-20T16:43:23.525Z,98349.63
2023-04-20T16:45:50.435Z,98349.94
2023-04-20T16:48:17.269Z,98350.66
2023-04-20T16:50:44.377Z,98339.78
2023-04-20T16:53:11.230Z,98344.59
2023-04-20T16:55:38.112Z,98352.94
2023-04-20T16:58:08.190Z,98364.25
2023-04-20T17:00:35.463Z,98367.72
2023-04-20T17:03:11.033Z,98376.34
2023-04-20T17:05:41.669Z,98382.41
2023-04-20T17:08:13.601Z,98380.78
2023-04-20T17:10:40.591Z,98378.16
2023-04-20T17:13:07.603Z,98384.13
2023-04-20T17:15:34.602Z,98388.81
2023-04-20T17:18:02.082Z,98389.09
2023-04-20T17:20:28.976Z,98395.88
2023-04-20T17:22:55.837Z,98392.09
2023-04-20T17:25:23.910Z,98380.72
2023-04-20T17:27:51.410Z,98371.22
2023-04-20T17:30:18.561Z,98366.41
2023-04-20T17:32:45.602Z,98363.69
2023-04-20T17:35:15.039Z,98376.09
2023-04-20T17:37:42.231Z,98378.81
2023-04-20T17:40:10.890Z,98366.06
2023-04-20T17:42:37.873Z,98366.84
2023-04-20T17:45:06.842Z,98363.38
2023-04-20T17:47:33.686Z,98378.09
2023-04-20T17:50:00.683Z,98388.59
2023-04-20T17:52:27.578Z,98390.28
2023-04-20T17:54:58.207Z,98385.47
2023-04-20T17:57:25.167Z,98383.88
2023-04-20T17:59:52.134Z,98391.44
2023-04-20T18:02:19.099Z,98387.38
2023-04-20T18:04:46.761Z,98366.63
2023-04-20T18:07:15.525Z,98368.84
2023-04-20T18:09:43.395Z,98360.00
2023-04-20T18:12:11.313Z,98358.63
2023-04-20T18:14:40.517Z,98380.22
2023-04-20T18:17:08.339Z,98370.81
2023-04-20T18:19:35.449Z,98371.16
2023-04-20T18:22:03.718Z,98379.56
2023-04-20T18:24:30.617Z,98379.25
2023-04-20T18:26:58.399Z,98378.16
2023-04-20T18:29:26.117Z,98381.38
2023-04-20T18:31:56.235Z,98401.03
2023-04-20T18:34:24.853Z,98407.19
2023-04-20T18:36:51.683Z,98405.22
2023-04-20T18:39:18.510Z,98406.81
2023-04-20T18:41:45.262Z,98394.41
2023-04-20T18:44:12.122Z,98389.09
2023-04-20T18:46:39.092Z,98386.69
2023-04-20T18:49:08.143Z,98392.88
2023-04-20T18:51:35.190Z,98403.16
2023-04-20T18:54:03.340Z,98412.59
2023-04-20T18:56:32.871Z,98406.53
2023-04-20T18:59:00.617Z,98412.72
2023-04-20T19:01:27.732Z,98420.56
2023-04-20T19:03:54.963Z,98414.41
2023-04-20T19:06:22.702Z,98411.19
2023-04-20T19:08:53.048Z,98413.31
2023-04-20T19:11:20.531Z,98417.91
2023-04-20T19:13:47.483Z,98414.97
2023-04-20T19:16:15.396Z,98419.59
2023-04-20T19:18:43.216Z,98416.38
2023-04-20T19:21:11.370Z,98418.78
2023-04-20T19:23:38.226Z,98413.38
2023-04-20T19:26:10.459Z,98426.28
2023-04-20T19:28:37.686Z,98418.50
2023-04-20T19:31:05.620Z,98421.97
2023-04-20T19:33:32.611Z,98416.06
2023-04-20T19:36:02.660Z,98409.31
2023-04-20T19:38:31.781Z,98409.06
2023-04-20T19:40:58.704Z,98415.84
2023-04-20T19:43:25.437Z,98412.66
2023-04-20T19:45:53.518Z,98412.72
2023-04-20T19:48:22.038Z,98414.00
2023-04-20T19:50:50.686Z,98411.63
2023-04-20T19:53:19.334Z,98414.88
2023-04-20T19:55:46.836Z,98417.59
2023-04-20T19:58:13.851Z,98413.28
2023-04-20T20:00:42.514Z,98413.84
2023-04-20T20:03:12.274Z,98416.31
2023-04-20T20:05:42.977Z,98413.63
2023-04-20T20:08:09.898Z,98415.78
2023-04-20T20:10:37.356Z,98409.88
2023-04-20T20:13:04.317Z,98410.66
2023-04-20T20:15:32.246Z,98402.88
2023-04-20T20:17:59.491Z,98406.72
2023-04-20T20:20:33.032Z,98406.41
2023-04-20T20:23:00.676Z,98398.38
2023-04-20T20:25:28.003Z,98405.75
2023-04-20T20:27:57.584Z,98397.72
2023-04-20T20:30:24.821Z,98401.72
2023-04-20T20:32:52.025Z,98403.09
2023-04-20T20:35:19.856Z,98404.72
2023-04-20T20:37:50.462Z,98402.59
2023-04-20T20:40:18.111Z,98404.75
2023-04-20T20:43:08.865Z,98408.59
2023-04-20T20:45:37.108Z,98406.53
2023-04-20T20:48:04.412Z,98404.91
2023-04-20T20:50:31.296Z,98411.09
2023-04-20T20:52:58.199Z,98399.28
2023-04-20T20:55:25.457Z,98405.75
2023-04-20T20:57:52.353Z,98404.97
2023-04-20T21:00:19.167Z,98404.09
2023-04-20T21:02:46.147Z,98403.81
2023-04-20T21:05:13.119Z,98397.34
2023-04-20T21:07:45.192Z,98396.53
2023-04-20T21:10:12.158Z,98397.50
2023-04-20T21:12:39.018Z,98396.41
2023-04-20T21:15:07.611Z,98391.91
2023-04-20T21:17:41.743Z,98392.22
2023-04-20T21:20:09.968Z,98395.78
2023-04-20T21:22:36.906Z,98390.41
2023-04-20T21:25:04.115Z,98381.28
2023-04-20T21:27:31.049Z,98388.88
2023-04-20T21:30:00.978Z,98391.31
2023-04-20T21:32:30.405Z,98391.91
2023-04-20T21:34:57.293Z,98395.09
2023-04-20T21:37:24.124Z,98389.97
2023-04-20T21:39:51.425Z,98393.25
2023-04-20T21:42:18.266Z,98389.00
2023-04-20T21:44:45.183Z,98390.94
2023-04-20T21:47:17.914Z,98385.84
2023-04-20T21:49:44.761Z,98385.38
2023-04-20T21:52:11.498Z,98385.97
2023-04-20T21:54:40.072Z,98387.94
2023-04-20T21:57:07.338Z,98383.63
2023-04-20T21:59:34.120Z,98390.34
2023-04-20T22:02:01.242Z,98384.72
2023-04-20T22:04:32.197Z,98384.19
2023-04-20T22:07:00.369Z,98391.75
2023-04-20T22:09:27.231Z,98386.63
2023-04-20T22:11:54.103Z,98384.75
2023-04-20T22:14:21.213Z,98386.09
2023-04-20T22:16:48.096Z,98394.75
2023-04-20T22:19:16.197Z,98389.69
2023-04-20T22:21:43.898Z,98397.53
2023-04-20T22:24:10.787Z,98400.75
2023-04-20T22:26:37.645Z,98392.94
2023-04-20T22:29:04.512Z,98397.53
2023-04-20T22:31:32.625Z,98406.19
2023-04-20T22:33:59.653Z,98408.34
2023-04-20T22:36:26.599Z,98409.41
2023-04-20T22:38:53.554Z,98409.94
2023-04-20T22:41:21.642Z,98414.31
2023-04-20T22:43:48.504Z,98412.75
2023-04-20T22:46:15.412Z,98422.97
2023-04-20T22:48:47.176Z,98425.38
2023-04-20T22:51:17.251Z,98425.34
2023-04-20T22:53:48.776Z,98425.34
2023-04-20T22:56:15.651Z,98418.88
2023-04-20T22:58:45.253Z,98422.41
2023-04-20T23:01:12.296Z,98421.03
2023-04-20T23:03:39.470Z,98423.22
2023-04-20T23:06:07.085Z,98423.53
2023-04-20T23:08:39.516Z,98423.53
2023-04-20T23:11:07.834Z,98420.56
2023-04-20T23:13:34.702Z,98413.03
2023-04-20T23:16:01.818Z,98412.50
2023-04-20T23:18:30.196Z,98409.56
2023-04-20T23:20:57.264Z,98405.25
2023-04-20T23:23:24.075Z,98406.38
2023-04-20T23:25:50.936Z,98420.13
2023-04-20T23:28:20.700Z,98421.97
2023-04-20T23:30:47.475Z,98416.59
2023-04-20T23:33:14.320Z,98421.19
2023-04-20T23:35:41.109Z,98424.44
2023-04-20T23:38:07.913Z,98425.22
2023-04-20T23:40:34.739Z,98418.75
2023-04-20T23:43:01.722Z,98419.28
2023-04-20T23:45:28.662Z,98414.72
2023-04-20T23:47:55.605Z,98410.41
2023-04-20T23:50:22.709Z,98409.06
2023-04-20T23:52:49.649Z,98404.75
2023-04-20T23:55:16.576Z,98402.91
2023-04-20T23:57:47.112Z,98400.25
